createdAt,value
2023-08-14T20:45:20.147Z,99573.16
2023-08-14T20:49:21.903Z,99581.44
2023-08-14T20:53:23.626Z,99582.47
2023-08-14T20:57:25.392Z,99592.78
2023-08-14T21:01:27.150Z,99596.59
2023-08-14T21:05:29.129Z,99598.78
2023-08-14T21:09:31.172Z,99610.25
2023-08-14T21:13:32.917Z,99604.47
2023-08-14T21:17:34.655Z,99605.28
2023-08-14T21:21:36.424Z,99600.81
2023-08-14T21:25:47.312Z,99602.81
2023-08-14T21:29:49.746Z,99592.59
2023-08-14T21:33:52.345Z,99598.19
2023-08-14T21:37:53.938Z,99602.88
2023-08-14T21:41:55.742Z,99598.56
2023-08-14T21:45:57.740Z,99604.50
2023-08-14T21:49:59.683Z,99605.00
2023-08-14T21:54:01.359Z,99609.00
2023-08-14T21:58:03.093Z,99612.13
2023-08-14T22:02:04.805Z,99606.84
2023-08-14T22:06:06.730Z,99604.56
2023-08-14T22:10:11.121Z,99600.94
2023-08-14T22:14:13.195Z,99594.97
2023-08-14T22:18:15.291Z,99610.53
2023-08-14T22:22:17.413Z,99608.91
2023-08-14T22:26:19.123Z,99613.19
2023-08-14T22:30:20.818Z,99610.25
2023-08-14T22:34:22.575Z,99618.69
2023-08-14T22:38:25.220Z,99616.00
2023-08-14T22:42:26.904Z,99627.03
2023-08-14T22:46:28.597Z,99617.13
2023-08-14T22:50:31.457Z,99621.09
2023-08-14T22:54:33.138Z,99629.84
2023-08-14T22:58:34.878Z,99622.09
2023-08-14T23:02:39.291Z,99610.53
2023-08-14T23:06:41.334Z,99613.00
2023-08-14T23:10:43.021Z,99604.22
2023-08-14T23:14:44.716Z,99601.41
2023-08-14T23:18:46.446Z,99614.16
2023-08-14T23:22:48.422Z,99616.16
2023-08-14T23:26:50.137Z,99611.53
2023-08-14T23:30:51.869Z,99608.44
2023-08-14T23:34:53.614Z,99611.44
2023-08-14T23:38:55.380Z,99611.16
2023-08-14T23:42:57.074Z,99605.69
2023-08-14T23:46:58.944Z,99608.34
2023-08-14T23:51:00.666Z,99597.28
2023-08-14T23:55:02.369Z,99587.75
2023-08-14T23:59:04.541Z,99582.94
